Time;durP1;ratioP1;P1;durP2;ratioP2;P2;SDS_P1;SDS_P2;PMS_P1;PMS_P2;Temp;Humidity;BMP_temperature;BMP_pressure;BME280_temperature;BME280_humidity;BME280_pressure;Samples;Min_cycle;Max_cycle;Signal;HPM_P1;HPM_P2
2023/03/15 00:02:03;;;;;;;;;;;;;;;2.05;82.25;99218.13;134114;1297;22434;-84
2023/03/15 00:05:34;;;;;;;;;;;;;;;2.05;82.13;99226.48;134096;1297;22518;-83
2023/03/15 00:08:42;;;;;;;;;;;;;;;2.06;82.15;99233.70;134153;1297;22450;-84
2023/03/15 00:11:45;;;;;;;;;;;;;;;2.08;82.06;99239.29;134124;1298;23270;-83
2023/03/15 00:15:19;;;;;;;;;;;;;;;;;;;;;
2023/03/15 00:18:26;;;;;;;;;;;;;;;2.10;82.19;99260.75;134084;1297;22587;-84
2023/03/15 00:21:56;;;;;;;;;;;;;;;;;;;;;
2023/03/15 00:25:26;;;;;;;;;;;;;;;2.09;82.08;99276.08;133835;1297;22497;-83
2023/03/15 00:29:17;;;;;;;;;;;;;;;2.09;81.95;99288.71;134119;1295;22466;-84
2023/03/15 00:35:52;;;;;;;;;;;;;;;2.08;81.77;99297.05;134023;1298;22469;-84
2023/03/15 00:39:05;;;;;;;;;;;;;;;2.09;81.94;99292.94;134263;1298;22440;-83
2023/03/15 00:42:29;;;;;;;;;;;;;;;2.09;81.96;99300.14;134248;1298;22396;-83
2023/03/15 00:45:44;;;;;;;;;;;;;;;2.06;81.86;99305.48;134081;1297;22457;-84
2023/03/15 00:49:23;;;;;;;;;;;;;;;2.04;81.99;99310.84;133486;1303;22486;-83
2023/03/15 00:52:36;;;;;;;;;;;;;;;1.99;81.98;99317.33;133557;1300;22535;-84
2023/03/15 00:55:37;;;;;;;;;;;;;;;1.95;82.02;99324.30;133402;1301;22473;-84
2023/03/15 00:58:40;;;;;;;;;;;;;;;1.93;82.17;99327.67;133527;1303;22453;-84
2023/03/15 01:01:52;;;;;;;;;;;;;;;1.90;82.01;99336.48;133571;1302;22652;-84
2023/03/15 01:05:14;;;;;;;;;;;;;;;1.87;82.02;99325.05;133566;1300;22485;-83
2023/03/15 01:08:15;;;;;;;;;;;;;;;1.84;81.99;99318.35;133403;1302;22478;-84
2023/03/15 01:11:20;;;;;;;;;;;;;;;1.80;81.93;99316.52;133437;1303;22516;-83
2023/03/15 01:18:22;;;;;;;;;;;;;;;;;;;;;
2023/03/15 01:21:25;;;;;;;;;;;;;;;1.61;82.18;99317.41;134068;1298;22522;-83
2023/03/15 01:24:26;;;;;;;;;;;;;;;1.57;82.16;99315.82;134255;1296;22589;-84
2023/03/15 01:27:35;;;;;;;;;;;;;;;1.54;82.28;99319.38;134238;1295;22470;-84
2023/03/15 01:30:36;;;;;;;;;;;;;;;1.52;82.35;99324.45;134099;1304;23226;-83
2023/03/15 01:33:37;;;;;;;;;;;;;;;1.50;82.43;99328.69;134298;1296;23195;-83
2023/03/15 01:36:37;;;;;;;;;;;;;;;1.49;82.45;99333.77;134076;1298;22523;-83
2023/03/15 01:40:08;;;;;;;;;;;;;;;;;;;;;
2023/03/15 01:43:33;;;;;;;;;;;;;;;1.47;82.41;99348.98;134001;1298;22510;-84
2023/03/15 01:46:34;;;;;;;;;;;;;;;1.45;82.31;99349.84;134051;1298;22454;-84
2023/03/15 01:49:52;;;;;;;;;;;;;;;1.43;82.44;99354.84;134159;1299;22446;-83
2023/03/15 01:52:54;;;;;;;;;;;;;;;1.42;82.41;99361.79;134086;1298;22438;-84
2023/03/15 01:56:05;;;;;;;;;;;;;;;1.42;82.32;99366.62;134120;1296;22505;-83
2023/03/15 01:59:15;;;;;;;;;;;;;;;1.41;82.18;99371.77;134255;1298;22461;-83
2023/03/15 02:02:18;;;;;;;;;;;;;;;1.39;82.10;99383.07;133967;1297;22453;-84
2023/03/15 02:05:26;;;;;;;;;;;;;;;1.37;82.06;99394.59;134118;1298;22481;-83
2023/03/15 02:08:32;;;;;;;;;;;;;;;1.35;81.95;99397.84;134048;1298;23194;-83
2023/03/15 02:11:34;;;;;;;;;;;;;;;1.33;81.92;99398.71;134282;1297;22496;-83
2023/03/15 02:14:53;;;;;;;;;;;;;;;1.31;81.81;99401.47;134143;1297;22427;-84
2023/03/15 02:18:04;;;;;;;;;;;;;;;1.30;81.77;99413.43;134152;1298;22468;-83
2023/03/15 02:21:17;;;;;;;;;;;;;;;1.27;81.69;99424.25;134262;1297;23248;-83
2023/03/15 02:25:01;;;;;;;;;;;;;;;1.27;81.52;99434.61;134222;1297;22512;-84
2023/03/15 02:28:03;;;;;;;;;;;;;;;1.25;81.48;99447.58;134038;1301;23330;-83
2023/03/15 02:31:04;;;;;;;;;;;;;;;1.26;81.43;99456.30;134093;1296;219909;-84
2023/03/15 02:34:17;;;;;;;;;;;;;;;1.24;81.30;99457.28;134055;1301;22522;-83
2023/03/15 02:37:41;;;;;;;;;;;;;;;1.21;81.18;99459.98;134271;1297;22486;-84
2023/03/15 02:40:45;;;;;;;;;;;;;;;1.21;81.22;99462.80;134184;1297;22419;-84
2023/03/15 02:43:49;;;;;;;;;;;;;;;1.20;81.03;99464.98;134264;1298;22454;-83
2023/03/15 02:46:51;;;;;;;;;;;;;;;1.19;81.08;99473.74;133958;1295;22452;-83
2023/03/15 02:50:06;;;;;;;;;;;;;;;1.19;81.15;99478.43;134069;1304;22442;-84
2023/03/15 02:53:12;;;;;;;;;;;;;;;1.18;81.12;99479.20;134142;1298;22426;-83
2023/03/15 02:56:16;;;;;;;;;;;;;;;1.18;81.10;99484.28;134264;1297;22572;-83
2023/03/15 02:59:16;;;;;;;;;;;;;;;1.17;80.99;99486.30;134254;1298;22471;-84
2023/03/15 03:02:17;;;;;;;;;;;;;;;1.15;81.05;99490.07;134065;1297;22458;-84
2023/03/15 03:05:18;;;;;;;;;;;;;;;1.13;80.99;99499.81;134057;1300;22458;-84
2023/03/15 03:08:18;;;;;;;;;;;;;;;1.12;80.92;99502.01;134257;1296;23303;-84
2023/03/15 03:11:19;;;;;;;;;;;;;;;1.11;81.02;99507.27;134127;1298;22425;-83
2023/03/15 03:14:46;;;;;;;;;;;;;;;1.10;81.06;99519.02;134147;1298;22514;-83
2023/03/15 03:18:14;;;;;;;;;;;;;;;1.08;81.02;99523.17;134243;1296;22466;-83
2023/03/15 03:21:15;;;;;;;;;;;;;;;1.07;81.05;99527.48;134165;1297;22557;-84
2023/03/15 03:24:48;;;;;;;;;;;;;;;;;;;;;
2023/03/15 03:28:33;;;;;;;;;;;;;;;;;;;;;
2023/03/15 03:32:59;;;;;;;;;;;;;;;1.05;80.72;99542.07;133969;1297;22686;-83
2023/03/15 03:36:14;;;;;;;;;;;;;;;1.03;80.69;99551.16;134042;1297;22536;-83
2023/03/15 03:43:12;;;;;;;;;;;;;;;;;;;;;
2023/03/15 03:46:35;;;;;;;;;;;;;;;1.00;80.66;99558.89;134052;1297;22583;-84
2023/03/15 03:49:36;;;;;;;;;;;;;;;0.99;80.41;99561.92;134073;1297;23223;-83
2023/03/15 03:52:46;;;;;;;;;;;;;;;0.98;80.42;99567.58;134075;1297;22462;-84
2023/03/15 03:55:53;;;;;;;;;;;;;;;0.95;80.50;99571.30;134098;1297;23225;-83
2023/03/15 03:59:35;;;;;;;;;;;;;;;0.92;80.58;99569.40;133954;1297;23144;-83
2023/03/15 04:02:48;;;;;;;;;;;;;;;0.90;80.44;99567.97;133937;1300;23175;-83
2023/03/15 04:06:02;;;;;;;;;;;;;;;;;;;;;
2023/03/15 04:09:23;;;;;;;;;;;;;;;0.88;80.32;99581.02;133994;1297;22449;-83
2023/03/15 04:12:58;;;;;;;;;;;;;;;;;;;;;
2023/03/15 04:16:37;;;;;;;;;;;;;;;;;;;;;
2023/03/15 04:19:59;;;;;;;;;;;;;;;;;;;;;
2023/03/15 04:23:17;;;;;;;;;;;;;;;0.84;80.25;99584.06;134088;1297;23211;-84
2023/03/15 04:26:41;;;;;;;;;;;;;;;0.83;80.13;99582.10;133932;1298;23291;-83
2023/03/15 04:29:54;;;;;;;;;;;;;;;0.80;80.08;99584.02;133997;1298;23082;-84
2023/03/15 04:33:43;;;;;;;;;;;;;;;0.79;79.95;99578.05;134010;1299;22508;-84
2023/03/15 04:37:02;;;;;;;;;;;;;;;0.77;80.10;99582.05;134058;1291;22482;-83
2023/03/15 04:40:37;;;;;;;;;;;;;;;0.74;79.99;99595.98;133897;1297;22476;-83
2023/03/15 04:43:50;;;;;;;;;;;;;;;0.71;79.95;99613.67;133938;1298;22473;-83
2023/03/15 04:47:15;;;;;;;;;;;;;;;0.69;79.95;99622.88;134098;1297;23034;-84
2023/03/15 04:50:57;;;;;;;;;;;;;;;0.66;79.94;99627.40;133953;1300;22454;-84
2023/03/15 04:54:20;;;;;;;;;;;;;;;0.63;80.10;99636.67;133980;1297;23245;-84
2023/03/15 04:57:59;;;;;;;;;;;;;;;0.60;80.02;99641.65;134086;1297;22553;-83
2023/03/15 05:01:59;;;;;;;;;;;;;;;0.57;80.06;99649.17;134061;1302;22575;-84
2023/03/15 05:05:29;;;;;;;;;;;;;;;0.57;80.19;99654.55;134040;1297;22442;-83
2023/03/15 05:08:53;;;;;;;;;;;;;;;0.56;80.11;99663.51;134071;1297;22502;-84
2023/03/15 05:12:33;;;;;;;;;;;;;;;0.55;80.12;99665.34;134011;1300;22450;-84
2023/03/15 05:20:11;;;;;;;;;;;;;;;;;;;;;
2023/03/15 05:24:16;;;;;;;;;;;;;;;0.50;80.14;99673.88;133974;1298;22671;-83
2023/03/15 05:27:42;;;;;;;;;;;;;;;0.50;80.31;99677.52;133702;1305;22465;-82
2023/03/15 05:31:18;;;;;;;;;;;;;;;0.50;80.26;99681.20;134001;1297;23286;-86
2023/03/15 05:34:53;;;;;;;;;;;;;;;0.53;80.20;99686.90;134022;1297;23111;-83
2023/03/15 05:38:25;;;;;;;;;;;;;;;0.59;80.32;99692.04;134112;1297;22427;-81
2023/03/15 05:41:58;;;;;;;;;;;;;;;0.62;80.25;99695.66;134093;1297;22522;-82
2023/03/15 05:45:25;;;;;;;;;;;;;;;0.66;80.28;99707.84;134098;1288;22536;-85
2023/03/15 05:48:39;;;;;;;;;;;;;;;0.72;80.38;99713.30;134063;1297;22481;-84
2023/03/15 05:51:49;;;;;;;;;;;;;;;0.83;80.43;99715.67;133899;1297;22449;-83
2023/03/15 05:55:40;;;;;;;;;;;;;;;;;;;;;
2023/03/15 05:59:12;;;;;;;;;;;;;;;1.00;80.19;99719.48;134047;1297;22448;-82
2023/03/15 06:02:32;;;;;;;;;;;;;;;1.06;80.14;99726.98;134076;1297;23108;-70
2023/03/15 06:05:46;;;;;;;;;;;;;;;1.08;79.95;99732.57;134009;1298;23389;-81
2023/03/15 06:08:50;;;;;;;;;;;;;;;1.10;79.83;99743.63;133956;1297;22467;-80
2023/03/15 06:12:20;;;;;;;;;;;;;;;1.13;79.91;99746.17;134077;1297;22516;-80
2023/03/15 06:15:33;;;;;;;;;;;;;;;1.16;79.69;99743.19;134078;1297;22501;-80
2023/03/15 06:18:55;;;;;;;;;;;;;;;1.20;79.63;99749.81;133975;1298;22434;-81
2023/03/15 06:21:55;;;;;;;;;;;;;;;1.29;79.38;99745.83;134020;1297;23215;-81
2023/03/15 06:25:30;;;;;;;;;;;;;;;;;;;;;
2023/03/15 06:29:15;;;;;;;;;;;;;;;;;;;;;
2023/03/15 06:40:06;;;;;;;;;;;;;;;1.67;78.74;99766.10;133903;1297;22516;-81
2023/03/15 06:43:18;;;;;;;;;;;;;;;1.75;78.53;99770.73;134129;1297;22421;-81
2023/03/15 06:46:40;;;;;;;;;;;;;;;1.83;78.16;99771.70;134031;1297;22462;-81
2023/03/15 06:49:40;;;;;;;;;;;;;;;1.91;77.96;99774.88;134132;1297;22527;-84
2023/03/15 06:52:52;;;;;;;;;;;;;;;1.97;77.83;99781.05;134123;1297;22456;-84
2023/03/15 06:55:53;;;;;;;;;;;;;;;2.06;77.55;99790.08;133921;1297;22522;-84
2023/03/15 06:59:06;;;;;;;;;;;;;;;2.18;77.82;99799.25;134121;1291;22448;-83
2023/03/15 07:02:13;;;;;;;;;;;;;;;2.36;76.83;99806.27;134158;1297;22441;-84
2023/03/15 07:05:16;;;;;;;;;;;;;;;2.56;76.80;99810.91;134099;1297;23136;-85
2023/03/15 07:08:35;;;;;;;;;;;;;;;2.83;76.97;99813.78;134081;1297;22503;-83
2023/03/15 07:11:46;;;;;;;;;;;;;;;3.09;76.26;99821.80;134120;1297;22502;-83
2023/03/15 07:15:21;;;;;;;;;;;;;;;;;;;;;
2023/03/15 07:18:41;;;;;;;;;;;;;;;3.50;74.90;99837.42;134116;1297;22552;-84
2023/03/15 07:21:42;;;;;;;;;;;;;;;3.47;74.63;99832.66;134043;1297;22598;-85
2023/03/15 07:25:14;;;;;;;;;;;;;;;;;;;;;
2023/03/15 07:28:48;;;;;;;;;;;;;;;;;;;;;
2023/03/15 07:32:38;;;;;;;;;;;;;;;3.23;73.69;99847.94;133949;1297;22474;-84
2023/03/15 07:35:42;;;;;;;;;;;;;;;3.16;73.70;99853.41;134105;1297;23206;-84
2023/03/15 07:38:45;;;;;;;;;;;;;;;3.15;74.07;99854.86;134092;1298;23260;-86
2023/03/15 07:41:46;;;;;;;;;;;;;;;3.21;74.00;99863.55;134087;1297;22455;-82
2023/03/15 07:44:53;;;;;;;;;;;;;;;3.25;73.59;99868.05;133938;1297;22569;-85
2023/03/15 07:47:59;;;;;;;;;;;;;;;3.30;73.52;99872.92;133969;1297;23370;-84
2023/03/15 07:50:59;;;;;;;;;;;;;;;3.33;73.33;99872.86;134059;1297;22456;-85
2023/03/15 07:54:30;;;;;;;;;;;;;;;;;;;;;
2023/03/15 07:58:02;;;;;;;;;;;;;;;3.36;72.90;99868.90;134107;1297;22482;-84
2023/03/15 08:01:02;;;;;;;;;;;;;;;3.43;72.86;99872.53;134097;1297;22532;-85
2023/03/15 08:04:05;;;;;;;;;;;;;;;3.67;72.58;99878.23;134090;1297;23526;-85
2023/03/15 08:07:27;;;;;;;;;;;;;;;4.21;72.44;99882.10;134091;1297;22447;-86
2023/03/15 08:10:50;;;;;;;;;;;;;;;4.70;71.98;99891.81;134126;1297;23351;-82
2023/03/15 08:18:23;;;;;;;;;;;;;;;5.13;70.14;99900.27;134127;1297;24120;-86
2023/03/15 08:22:04;;;;;;;;;;;;;;;5.19;69.37;99903.08;133900;1297;23205;-84
2023/03/15 08:25:15;;;;;;;;;;;;;;;5.19;69.41;99910.81;134097;1297;22455;-84
2023/03/15 08:28:39;;;;;;;;;;;;;;;4.99;68.61;99916.23;134119;1297;23312;-85
2023/03/15 08:31:59;;;;;;;;;;;;;;;4.76;69.27;99927.89;134134;1297;22462;-84
2023/03/15 08:35:41;;;;;;;;;;;;;;;;;;;;;
2023/03/15 08:39:25;;;;;;;;;;;;;;;4.43;68.73;99940.21;133761;1300;22480;-84
2023/03/15 08:42:41;;;;;;;;;;;;;;;4.32;69.07;99944.31;133732;1300;22489;-82
2023/03/15 08:46:27;;;;;;;;;;;;;;;;;;;;;
2023/03/15 08:49:38;;;;;;;;;;;;;;;4.30;69.63;99955.36;133330;1303;22600;-84
2023/03/15 08:52:39;;;;;;;;;;;;;;;4.30;69.06;99957.12;133363;1303;22470;-84
2023/03/15 08:55:39;;;;;;;;;;;;;;;4.29;68.13;99962.13;133340;1303;22479;-84
2023/03/15 08:58:51;;;;;;;;;;;;;;;4.33;68.26;99962.09;133361;1303;22524;-83
2023/03/15 09:01:54;;;;;;;;;;;;;;;4.35;67.93;99966.33;133357;1303;22477;-84
2023/03/15 09:05:09;;;;;;;;;;;;;;;4.43;67.74;99963.34;133659;1300;23203;-82
2023/03/15 09:08:10;;;;;;;;;;;;;;;4.44;67.38;99970.23;133709;1300;22477;-84
2023/03/15 09:11:13;;;;;;;;;;;;;;;4.47;67.22;99968.05;133736;1301;22463;-84
2023/03/15 09:14:17;;;;;;;;;;;;;;;4.59;67.39;99966.00;133732;1300;22506;-85
2023/03/15 09:17:23;;;;;;;;;;;;;;;4.76;66.92;99965.77;134000;1297;22499;-85
2023/03/15 09:20:27;;;;;;;;;;;;;;;4.91;66.93;99970.77;134048;1299;23211;-85
2023/03/15 09:23:28;;;;;;;;;;;;;;;5.10;67.07;99972.30;134182;1298;23159;-86
2023/03/15 09:26:28;;;;;;;;;;;;;;;5.16;65.73;99972.77;133920;1300;22695;-83
2023/03/15 09:29:29;;;;;;;;;;;;;;;5.13;65.85;99972.70;134126;1297;22470;-84
2023/03/15 09:32:42;;;;;;;;;;;;;;;5.19;66.02;99977.77;134100;1297;22598;-84
2023/03/15 09:35:49;;;;;;;;;;;;;;;5.38;65.95;99976.81;134026;1297;22482;-85
2023/03/15 09:42:10;;;;;;;;;;;;;;;5.52;65.06;99965.55;133992;1301;22481;-84
2023/03/15 09:45:13;;;;;;;;;;;;;;;5.49;64.71;99959.30;134151;1297;22524;-85
2023/03/15 09:48:18;;;;;;;;;;;;;;;5.54;64.06;99957.85;134113;1297;22516;-86
2023/03/15 09:51:30;;;;;;;;;;;;;;;5.58;63.73;99956.24;134155;1297;22497;-88
2023/03/15 09:55:41;;;;;;;;;;;;;;;5.63;64.37;99956.30;134151;1297;22463;-85
2023/03/15 09:58:34;;;;;;;;;;;;;;;5.75;64.48;99962.26;134033;1297;22485;-84
2023/03/15 10:01:36;;;;;;;;;;;;;;;5.81;63.68;99957.33;134134;1298;22465;-84
2023/03/15 10:04:39;;;;;;;;;;;;;;;5.80;62.98;99958.40;134125;1297;22472;-84
2023/03/15 10:08:00;;;;;;;;;;;;;;;;;;;;;
2023/03/15 10:11:07;;;;;;;;;;;;;;;5.69;62.23;99962.27;134109;1297;23232;-85
2023/03/15 10:14:25;;;;;;;;;;;;;;;5.67;62.50;99968.75;134137;1297;22976;-85
2023/03/15 10:18:21;;;;;;;;;;;;;;;5.71;62.98;99971.37;134122;1297;22452;-82
2023/03/15 10:21:42;;;;;;;;;;;;;;;5.78;62.06;99971.43;134158;1297;22467;-84
2023/03/15 10:25:11;;;;;;;;;;;;;;;5.84;62.54;99974.96;134147;1297;22482;-86
2023/03/15 10:28:42;;;;;;;;;;;;;;;;;;;;;
2023/03/15 10:32:04;;;;;;;;;;;;;;;5.92;61.55;99969.82;133856;1297;22536;-85
2023/03/15 10:35:10;;;;;;;;;;;;;;;5.97;61.32;99967.67;134115;1297;22494;-85
2023/03/15 10:38:50;;;;;;;;;;;;;;;;;;;;;
2023/03/15 10:42:22;;;;;;;;;;;;;;;6.20;60.74;99968.30;134037;1297;22477;-86
2023/03/15 10:45:27;;;;;;;;;;;;;;;6.24;60.77;99961.27;134178;1297;22454;-85
2023/03/15 10:48:41;;;;;;;;;;;;;;;6.32;60.78;99957.23;133915;1298;22470;-84
2023/03/15 10:52:33;;;;;;;;;;;;;;;;;;;;;
2023/03/15 10:56:10;;;;;;;;;;;;;;;6.41;59.74;99971.27;134118;1297;22531;-86
2023/03/15 10:59:44;;;;;;;;;;;;;;;;;;;;;
2023/03/15 11:03:02;;;;;;;;;;;;;;;6.49;60.06;99973.34;134094;1297;22661;-86
2023/03/15 11:06:54;;;;;;;;;;;;;;;;;;;;;
2023/03/15 11:10:35;;;;;;;;;;;;;;;6.51;58.80;99969.30;134141;1297;22499;-86
2023/03/15 11:13:37;;;;;;;;;;;;;;;6.54;59.19;99970.81;134103;1297;22455;-83
2023/03/15 11:16:42;;;;;;;;;;;;;;;6.64;59.41;99974.23;133820;1298;22466;-82
2023/03/15 11:19:50;;;;;;;;;;;;;;;6.69;58.55;99969.86;134080;1298;22474;-86
2023/03/15 11:23:32;;;;;;;;;;;;;;;6.64;58.43;99970.33;134149;1301;22462;-86
2023/03/15 11:27:00;;;;;;;;;;;;;;;;;;;;;
2023/03/15 11:30:41;;;;;;;;;;;;;;;6.72;57.52;99963.23;134119;1297;23176;-85
2023/03/15 11:34:05;;;;;;;;;;;;;;;6.63;57.14;99961.13;134085;1298;22504;-85
2023/03/15 11:37:12;;;;;;;;;;;;;;;6.65;57.87;99962.86;134113;1297;23166;-86
2023/03/15 11:40:52;;;;;;;;;;;;;;;;;;;;;
2023/03/15 11:43:58;;;;;;;;;;;;;;;6.85;56.79;99974.21;133989;1297;22487;-84
2023/03/15 11:47:08;;;;;;;;;;;;;;;6.86;57.01;99974.12;133900;1297;23182;-82
2023/03/15 11:50:11;;;;;;;;;;;;;;;6.88;56.87;99976.55;134086;1297;22608;-86
2023/03/15 11:53:53;;;;;;;;;;;;;;;6.92;57.04;99975.09;134125;1297;22535;-86
2023/03/15 11:57:32;;;;;;;;;;;;;;;6.76;56.09;99977.65;134122;1292;23230;-86
2023/03/15 12:00:33;;;;;;;;;;;;;;;6.58;55.73;99976.56;134165;1297;22553;-86
2023/03/15 12:03:41;;;;;;;;;;;;;;;6.42;56.09;99977.36;134145;1297;23267;-85
2023/03/15 12:06:41;;;;;;;;;;;;;;;6.30;55.84;99975.15;134121;1297;23256;-84
2023/03/15 12:09:51;;;;;;;;;;;;;;;6.23;55.95;99977.34;134162;1297;22430;-87
2023/03/15 12:13:08;;;;;;;;;;;;;;;6.19;56.47;99977.39;134102;1297;22572;-87
2023/03/15 12:16:13;;;;;;;;;;;;;;;6.17;55.62;99974.54;134084;1298;22448;-86
2023/03/15 12:19:45;;;;;;;;;;;;;;;;;;;;;
2023/03/15 12:23:16;;;;;;;;;;;;;;;6.11;55.22;99977.94;133820;1298;24571;-85
2023/03/15 12:26:26;;;;;;;;;;;;;;;6.21;55.76;99979.30;134099;1298;22487;-86
2023/03/15 12:29:35;;;;;;;;;;;;;;;6.27;54.90;99979.96;134034;1298;23337;-87
2023/03/15 12:32:44;;;;;;;;;;;;;;;6.26;55.14;99983.89;134055;1297;22461;-86
2023/03/15 12:36:06;;;;;;;;;;;;;;;;;;;;;
2023/03/15 12:39:14;;;;;;;;;;;;;;;6.47;55.94;99981.95;134123;1298;23308;-82
2023/03/15 12:42:53;;;;;;;;;;;;;;;6.56;55.52;99980.81;134117;1298;22493;-86
2023/03/15 12:45:53;;;;;;;;;;;;;;;6.51;55.14;99975.75;134097;1305;22532;-84
2023/03/15 12:49:13;;;;;;;;;;;;;;;6.49;55.33;99979.15;134112;1298;23292;-84
2023/03/15 12:52:23;;;;;;;;;;;;;;;6.53;55.40;99982.33;133878;1298;22490;-84
2023/03/15 12:55:26;;;;;;;;;;;;;;;6.58;55.43;99987.47;134089;1298;22458;-84
2023/03/15 12:58:33;;;;;;;;;;;;;;;6.59;55.41;99992.29;134138;1298;22477;-83
2023/03/15 13:01:34;;;;;;;;;;;;;;;6.56;55.52;99988.00;134015;1298;22466;-82
2023/03/15 13:04:34;;;;;;;;;;;;;;;6.50;55.58;99991.85;134138;1297;22743;-83
2023/03/15 13:07:47;;;;;;;;;;;;;;;6.51;55.29;99994.27;134128;1298;22525;-84
2023/03/15 13:11:03;;;;;;;;;;;;;;;6.47;55.73;99998.31;134124;1297;22438;-84
2023/03/15 13:14:28;;;;;;;;;;;;;;;6.41;55.46;100001.23;134180;1297;22442;-83
2023/03/15 13:17:41;;;;;;;;;;;;;;;6.34;55.48;100001.11;134124;1298;22483;-84
2023/03/15 13:20:49;;;;;;;;;;;;;;;6.29;55.25;100008.44;134119;1297;23182;-83
2023/03/15 13:23:50;;;;;;;;;;;;;;;6.30;55.50;100019.08;134140;1297;22541;-83
2023/03/15 13:27:00;;;;;;;;;;;;;;;6.27;55.34;100015.98;134087;1298;22488;-83
2023/03/15 13:30:27;;;;;;;;;;;;;;;6.17;55.15;100020.94;134117;1301;22527;-83
2023/03/15 13:33:33;;;;;;;;;;;;;;;6.04;55.07;100020.92;134108;1303;23022;-83
2023/03/15 13:36:40;;;;;;;;;;;;;;;5.97;55.41;100026.14;134142;1297;22485;-83
2023/03/15 13:39:52;;;;;;;;;;;;;;;5.95;55.63;100025.42;134127;1297;22540;-83
2023/03/15 13:42:58;;;;;;;;;;;;;;;5.95;55.70;100024.87;133896;1304;22438;-83
2023/03/15 13:46:04;;;;;;;;;;;;;;;6.00;56.32;100024.06;133880;1298;22489;-82
2023/03/15 13:49:05;;;;;;;;;;;;;;;6.09;56.29;100025.42;134143;1295;22459;-83
2023/03/15 13:52:10;;;;;;;;;;;;;;;6.14;55.99;100026.33;134115;1298;22539;-83
2023/03/15 13:55:12;;;;;;;;;;;;;;;6.16;55.55;100030.17;134113;1297;22459;-83
2023/03/15 13:58:13;;;;;;;;;;;;;;;6.18;55.80;100029.42;134128;1298;22461;-83
2023/03/15 14:01:15;;;;;;;;;;;;;;;6.20;55.07;100031.59;134111;1298;22479;-83
2023/03/15 14:04:19;;;;;;;;;;;;;;;6.16;54.79;100035.47;134166;1298;22436;-83
2023/03/15 14:07:35;;;;;;;;;;;;;;;6.09;54.93;100033.63;134172;1298;22584;-83
2023/03/15 14:10:39;;;;;;;;;;;;;;;6.02;55.15;100039.52;134128;1298;22469;-83
2023/03/15 14:13:50;;;;;;;;;;;;;;;5.97;55.59;100038.02;134097;1298;22474;-82
2023/03/15 14:16:53;;;;;;;;;;;;;;;5.94;55.27;100041.66;134132;1298;22530;-83
2023/03/15 14:19:57;;;;;;;;;;;;;;;5.88;54.92;100042.52;134125;1302;23176;-83
2023/03/15 14:24:04;;;;;;;;;;;;;;;5.76;55.03;100044.63;134012;1298;23139;-83
2023/03/15 14:26:50;;;;;;;;;;;;;;;5.69;55.23;100046.89;133836;1298;23119;-83
2023/03/15 14:29:59;;;;;;;;;;;;;;;5.64;55.63;100049.95;129817;1301;5398057;-83
2023/03/15 14:33:03;;;;;;;;;;;;;;;5.64;55.87;100049.73;134097;1297;22483;-83
2023/03/15 14:36:34;;;;;;;;;;;;;;;;;;;;;
2023/03/15 14:39:39;;;;;;;;;;;;;;;5.65;55.62;100054.98;133877;1301;23090;-83
2023/03/15 14:42:40;;;;;;;;;;;;;;;5.63;55.49;100055.08;133800;1297;22516;-84
2023/03/15 14:45:43;;;;;;;;;;;;;;;5.59;54.83;100054.58;133880;1300;23115;-83
2023/03/15 14:48:45;;;;;;;;;;;;;;;5.64;55.45;100056.25;133872;1298;22461;-83
2023/03/15 14:51:49;;;;;;;;;;;;;;;5.66;55.60;100056.23;133967;1303;22472;-82
2023/03/15 14:54:53;;;;;;;;;;;;;;;5.70;55.99;100059.41;133974;1298;23414;-81
2023/03/15 14:57:54;;;;;;;;;;;;;;;5.79;56.55;100064.58;133964;1303;23336;-84
2023/03/15 15:01:15;;;;;;;;;;;;;;;5.77;57.33;100063.86;133969;1298;22468;-81
2023/03/15 15:04:29;;;;;;;;;;;;;;;5.55;58.13;100069.17;133971;1298;23278;-82
2023/03/15 15:07:30;;;;;;;;;;;;;;;5.30;58.51;100072.37;133978;1303;23115;-80
2023/03/15 15:10:33;;;;;;;;;;;;;;;5.11;59.15;100077.96;133961;1298;23249;-82
2023/03/15 15:13:37;;;;;;;;;;;;;;;4.97;60.03;100080.52;133971;1298;22428;-84
2023/03/15 15:17:18;;;;;;;;;;;;;;;4.86;60.30;100080.27;133871;1298;22465;-89
2023/03/15 15:20:22;;;;;;;;;;;;;;;4.79;60.32;100082.93;133911;1302;22484;-81
2023/03/15 15:23:25;;;;;;;;;;;;;;;4.77;60.88;100080.48;133967;1300;22450;-80
2023/03/15 15:26:27;;;;;;;;;;;;;;;4.80;60.65;100082.14;133932;1301;22456;-80
2023/03/15 15:29:28;;;;;;;;;;;;;;;4.84;59.98;100079.36;133958;1302;22506;-79
2023/03/15 15:32:41;;;;;;;;;;;;;;;4.87;59.59;100083.47;133955;1301;23283;-84
2023/03/15 15:35:53;;;;;;;;;;;;;;;4.96;59.91;100091.68;134051;1301;23070;-78
2023/03/15 15:39:04;;;;;;;;;;;;;;;5.03;59.40;100098.60;134054;1298;22446;-78
2023/03/15 15:42:12;;;;;;;;;;;;;;;5.02;59.34;100102.05;134051;1301;22466;-78
2023/03/15 15:45:16;;;;;;;;;;;;;;;4.99;59.46;100105.74;134088;1299;22640;-78
2023/03/15 15:48:20;;;;;;;;;;;;;;;4.93;59.14;100109.95;134079;1298;22430;-85
2023/03/15 15:51:31;;;;;;;;;;;;;;;4.82;58.71;100109.85;134067;1298;23177;-78
2023/03/15 15:54:35;;;;;;;;;;;;;;;4.69;58.98;100113.35;134085;1301;22439;-78
2023/03/15 15:57:38;;;;;;;;;;;;;;;4.61;59.39;100114.73;134125;1298;22506;-78
2023/03/15 16:00:51;;;;;;;;;;;;;;;4.55;59.71;100111.82;134084;1297;22460;-78
2023/03/15 16:03:55;;;;;;;;;;;;;;;4.46;60.04;100114.58;134082;1298;22454;-78
2023/03/15 16:06:57;;;;;;;;;;;;;;;4.40;59.85;100115.29;133913;1300;23213;-78
2023/03/15 16:10:02;;;;;;;;;;;;;;;4.34;60.00;100123.66;133884;1297;22445;-78
2023/03/15 16:13:23;;;;;;;;;;;;;;;4.29;60.30;100127.91;134009;1298;23176;-78
2023/03/15 16:16:34;;;;;;;;;;;;;;;4.23;60.52;100131.05;134091;1298;22514;-78
2023/03/15 16:19:34;;;;;;;;;;;;;;;4.17;60.53;100133.82;134057;1299;24415;-78
2023/03/15 16:22:59;;;;;;;;;;;;;;;4.13;61.02;100136.58;134083;1298;22396;-78
2023/03/15 16:25:59;;;;;;;;;;;;;;;4.08;61.39;100137.23;134086;1295;22621;-78
2023/03/15 16:29:01;;;;;;;;;;;;;;;4.00;61.47;100139.58;134070;1297;22492;-78
2023/03/15 16:32:04;;;;;;;;;;;;;;;3.91;61.83;100142.17;134057;1298;23143;-78
2023/03/15 16:35:06;;;;;;;;;;;;;;;3.82;62.04;100147.48;134055;1289;22726;-78
2023/03/15 16:38:12;;;;;;;;;;;;;;;3.74;62.14;100150.08;134046;1297;26907;-78
2023/03/15 16:41:16;;;;;;;;;;;;;;;3.63;62.34;100159.86;134047;1298;22473;-78
2023/03/15 16:44:19;;;;;;;;;;;;;;;3.54;62.50;100165.04;134064;1297;23306;-78
2023/03/15 16:47:19;;;;;;;;;;;;;;;3.47;62.64;100165.30;134052;1298;22455;-78
2023/03/15 16:50:20;;;;;;;;;;;;;;;3.39;62.96;100171.48;134077;1298;22455;-78
2023/03/15 16:53:26;;;;;;;;;;;;;;;3.32;63.23;100176.95;134059;1297;22455;-78
2023/03/15 16:56:30;;;;;;;;;;;;;;;3.25;63.47;100183.64;134042;1297;22466;-78
2023/03/15 16:59:30;;;;;;;;;;;;;;;3.19;63.53;100186.36;134096;1285;22421;-78
2023/03/15 17:02:31;;;;;;;;;;;;;;;3.12;63.80;100193.31;134057;1291;24995;-78
2023/03/15 17:05:39;;;;;;;;;;;;;;;3.05;63.92;100191.11;134040;1297;22411;-78
2023/03/15 17:08:39;;;;;;;;;;;;;;;2.98;64.07;100197.57;134047;1291;22485;-78
2023/03/15 17:11:41;;;;;;;;;;;;;;;2.92;64.27;100199.09;134075;1297;22444;-78
2023/03/15 17:14:47;;;;;;;;;;;;;;;2.87;64.28;100203.48;134074;1297;22926;-78
2023/03/15 17:17:48;;;;;;;;;;;;;;;2.81;64.35;100205.48;134085;1297;22474;-78
2023/03/15 17:20:49;;;;;;;;;;;;;;;2.76;64.37;100207.95;134057;1294;22453;-79
2023/03/15 17:23:51;;;;;;;;;;;;;;;2.71;64.32;100217.58;134068;1297;23599;-78
2023/03/15 17:26:55;;;;;;;;;;;;;;;2.66;64.55;100222.66;134037;1297;22455;-78
2023/03/15 17:30:08;;;;;;;;;;;;;;;2.61;64.55;100229.70;134081;1297;22496;-80
2023/03/15 17:33:08;;;;;;;;;;;;;;;2.56;64.70;100234.59;134036;1297;23231;-78
2023/03/15 17:36:39;;;;;;;;;;;;;;;2.51;64.80;100237.89;134102;1297;22967;-82
2023/03/15 17:39:43;;;;;;;;;;;;;;;2.43;64.93;100240.73;134045;1297;23244;-81
2023/03/15 17:42:55;;;;;;;;;;;;;;;2.36;65.11;100240.45;133973;1298;22484;-80
2023/03/15 17:45:56;;;;;;;;;;;;;;;2.31;65.29;100236.94;134052;1297;23132;-79
2023/03/15 17:49:00;;;;;;;;;;;;;;;2.29;65.33;100245.99;134061;1297;22872;-80
2023/03/15 17:52:01;;;;;;;;;;;;;;;2.20;65.54;100246.56;133940;1298;22596;-80
2023/03/15 17:55:02;;;;;;;;;;;;;;;2.15;65.88;100246.60;134063;1297;22450;-79
2023/03/15 17:58:18;;;;;;;;;;;;;;;;;;;;;
2023/03/15 18:01:44;;;;;;;;;;;;;;;2.06;66.34;100257.91;133924;1297;22479;-79
2023/03/15 18:04:45;;;;;;;;;;;;;;;2.01;66.62;100258.45;134067;1297;22509;-79
2023/03/15 18:07:46;;;;;;;;;;;;;;;1.97;66.73;100257.87;134036;1297;23255;-79